Time;durP1;ratioP1;P1;durP2;ratioP2;P2;SDS_P1;SDS_P2;PMS_P1;PMS_P2;Temp;Humidity;BMP_temperature;BMP_pressure;BME280_temperature;BME280_humidity;BME280_pressure;Samples;Min_cycle;Max_cycle;Signal;HPM_P1;HPM_P2
2023/01/14 00:00:12;;;;;;;20.45;4.22;;;7.50;99.90;;;;;;5054881;28;20098;-52
2023/01/14 00:02:39;;;;;;;26.17;4.32;;;7.50;99.90;;;;;;5056124;28;20115;-54
2023/01/14 00:05:06;;;;;;;22.52;3.95;;;7.60;99.90;;;;;;5055916;28;20492;-48
2023/01/14 00:07:32;;;;;;;23.15;5.00;;;7.60;99.90;;;;;;5055979;28;20512;-51
2023/01/14 00:09:59;;;;;;;24.13;3.75;;;7.60;99.90;;;;;;5055799;28;20081;-53
2023/01/14 00:12:26;;;;;;;23.05;4.30;;;7.60;99.90;;;;;;5055937;28;20033;-52
2023/01/14 00:14:53;;;;;;;24.13;4.18;;;7.60;99.90;;;;;;5056006;28;20562;-51
2023/01/14 00:17:20;;;;;;;24.23;4.13;;;7.60;99.90;;;;;;5055405;28;20048;-51
2023/01/14 00:19:46;;;;;;;22.45;4.50;;;7.70;99.90;;;;;;5055783;28;20106;-53
2023/01/14 00:22:13;;;;;;;21.50;4.10;;;7.70;99.90;;;;;;5055860;28;20053;-49
2023/01/14 00:24:40;;;;;;;35.55;5.00;;;7.70;99.90;;;;;;5056024;28;20041;-47
2023/01/14 00:27:07;;;;;;;22.20;4.28;;;7.70;99.90;;;;;;5054563;28;20056;-53
2023/01/14 00:29:34;;;;;;;29.50;4.68;;;7.70;99.90;;;;;;5054590;28;20439;-53
2023/01/14 00:32:00;;;;;;;26.88;4.68;;;7.70;99.90;;;;;;5055488;28;20045;-51
2023/01/14 00:34:27;;;;;;;23.73;4.45;;;7.80;99.90;;;;;;5059844;28;20505;-52
2023/01/14 00:36:54;;;;;;;25.08;4.82;;;7.70;99.90;;;;;;5074964;28;20045;-49
2023/01/14 00:39:21;;;;;;;24.02;4.57;;;7.80;99.90;;;;;;5074949;28;20396;-52
2023/01/14 00:41:48;;;;;;;24.70;4.32;;;7.70;99.90;;;;;;5075106;28;20068;-55
2023/01/14 00:44:14;;;;;;;22.50;4.28;;;7.80;99.90;;;;;;5074728;28;20094;-58
2023/01/14 00:46:41;;;;;;;26.58;4.65;;;7.80;99.90;;;;;;5063484;28;20049;-54
2023/01/14 00:49:08;;;;;;;24.42;3.97;;;7.80;99.90;;;;;;5051438;28;20508;-53
2023/01/14 00:51:35;;;;;;;21.75;4.07;;;7.80;99.90;;;;;;5055574;28;20087;-51
2023/01/14 00:54:02;;;;;;;22.70;4.13;;;7.80;99.90;;;;;;5055189;28;20052;-50
2023/01/14 00:56:28;;;;;;;26.67;4.28;;;7.90;99.90;;;;;;5053850;28;20037;-54
2023/01/14 00:58:55;;;;;;;23.42;5.32;;;7.90;99.90;;;;;;5055125;28;20044;-52
2023/01/14 01:01:22;;;;;;;22.00;4.95;;;7.90;99.90;;;;;;5055296;28;20066;-52
2023/01/14 01:03:49;;;;;;;26.85;4.85;;;7.90;99.90;;;;;;5056942;28;20041;-49
2023/01/14 01:06:17;;;;;;;23.67;4.72;;;7.90;99.90;;;;;;5055364;28;20071;-48
2023/01/14 01:08:44;;;;;;;28.45;4.72;;;7.90;99.90;;;;;;5055027;28;20164;-51
2023/01/14 01:11:13;;;;;;;22.23;3.75;;;7.90;99.90;;;;;;5053648;28;20052;-50
2023/01/14 01:13:40;;;;;;;23.50;4.63;;;7.90;99.90;;;;;;5053755;28;20488;-52
2023/01/14 01:16:06;;;;;;;25.17;4.55;;;8.00;99.90;;;;;;5053357;28;20057;-58
2023/01/14 01:18:33;;;;;;;28.80;4.45;;;7.90;99.90;;;;;;5054487;28;20041;-53
2023/01/14 01:21:00;;;;;;;26.63;4.50;;;8.00;99.90;;;;;;5053548;28;20053;-56
2023/01/14 01:23:28;;;;;;;24.55;4.50;;;8.00;99.90;;;;;;5054885;28;20455;-54
2023/01/14 01:25:55;;;;;;;26.08;4.28;;;8.00;99.90;;;;;;5053398;28;20041;-48
2023/01/14 01:28:21;;;;;;;26.13;4.53;;;8.00;99.90;;;;;;5054677;28;20040;-50
2023/01/14 01:30:48;;;;;;;24.92;4.47;;;8.00;99.90;;;;;;5053067;28;20037;-53
2023/01/14 01:33:15;;;;;;;29.10;4.05;;;8.00;99.90;;;;;;5053156;28;20048;-48
2023/01/14 01:35:42;;;;;;;27.08;4.53;;;8.00;99.90;;;;;;5054764;28;20554;-51
2023/01/14 01:38:08;;;;;;;31.33;5.72;;;8.10;99.90;;;;;;5052816;28;20091;-51
2023/01/14 01:40:35;;;;;;;26.17;5.63;;;8.10;99.90;;;;;;5054143;28;20057;-52
2023/01/14 01:43:02;;;;;;;30.30;4.95;;;8.10;99.90;;;;;;5054519;28;20102;-51
2023/01/14 01:45:29;;;;;;;32.83;5.22;;;8.20;99.90;;;;;;5057102;28;20044;-55
2023/01/14 01:47:56;;;;;;;29.10;4.65;;;8.20;99.90;;;;;;5055248;28;20048;-56
2023/01/14 01:50:23;;;;;;;27.50;4.97;;;8.20;99.90;;;;;;5051907;28;20461;-53
2023/01/14 01:52:50;;;;;;;28.90;4.25;;;8.30;99.90;;;;;;5053947;28;20048;-53
2023/01/14 01:55:19;;;;;;;26.02;4.65;;;8.30;99.90;;;;;;5054134;28;20436;-50
2023/01/14 01:57:51;;;;;;;26.45;5.45;;;8.30;99.90;;;;;;5052751;28;20429;-53
2023/01/14 02:00:18;;;;;;;24.83;4.68;;;8.30;99.90;;;;;;5052577;28;20504;-51
2023/01/14 02:02:45;;;;;;;25.63;4.45;;;8.30;99.90;;;;;;5052725;28;20488;-51
2023/01/14 02:05:11;;;;;;;23.17;5.30;;;8.40;99.90;;;;;;5053720;28;20049;-49
2023/01/14 02:07:38;;;;;;;28.33;5.07;;;8.40;99.90;;;;;;5054097;28;20086;-48
2023/01/14 02:10:05;;;;;;;33.10;5.38;;;8.40;99.90;;;;;;5051984;28;20462;-51
2023/01/14 02:12:32;;;;;;;27.83;5.15;;;8.40;99.90;;;;;;5052649;28;20389;-47
2023/01/14 02:14:58;;;;;;;27.45;5.07;;;8.40;99.90;;;;;;5052707;28;20468;-49
2023/01/14 02:17:28;;;;;;;25.73;4.25;;;8.40;99.90;;;;;;5051804;28;20073;-47
2023/01/14 02:19:57;;;;;;;26.08;4.47;;;8.40;99.90;;;;;;5052410;28;20077;-51
2023/01/14 02:22:24;;;;;;;24.60;3.95;;;8.40;99.90;;;;;;5053676;28;20055;-50
2023/01/14 02:24:51;;;;;;;20.15;4.00;;;8.40;99.90;;;;;;5052635;28;20246;-49
2023/01/14 02:27:19;;;;;;;19.67;3.83;;;8.40;99.90;;;;;;5052279;28;20060;-51
2023/01/14 02:29:46;;;;;;;21.27;3.85;;;8.40;99.90;;;;;;5051613;28;20044;-49
2023/01/14 02:32:13;;;;;;;23.20;3.97;;;8.40;99.90;;;;;;5052464;28;20051;-51
2023/01/14 02:34:40;;;;;;;20.55;3.85;;;8.40;99.90;;;;;;5052181;28;20041;-52
2023/01/14 02:37:07;;;;;;;18.80;3.58;;;8.40;99.90;;;;;;5052342;28;20128;-54
2023/01/14 02:39:35;;;;;;;19.58;3.47;;;8.40;99.90;;;;;;5052042;28;20041;-51
2023/01/14 02:44:49;;;;;;;19.00;3.60;;;8.50;99.90;;;;;;5053459;28;20049;-54
2023/01/14 02:47:16;;;;;;;22.52;3.35;;;8.50;99.90;;;;;;5035692;28;20144;-57
2023/01/14 02:49:43;;;;;;;13.60;2.90;;;8.50;99.90;;;;;;5052602;28;20110;-52
2023/01/14 02:52:12;;;;;;;15.18;2.97;;;8.50;99.90;;;;;;5056133;28;20049;-53
2023/01/14 02:54:40;;;;;;;15.70;2.63;;;8.50;99.90;;;;;;5055883;28;20401;-51
2023/01/14 02:57:07;;;;;;;18.58;2.92;;;8.50;99.90;;;;;;5057260;28;20530;-53
2023/01/14 02:59:34;;;;;;;15.05;2.80;;;8.50;99.90;;;;;;5056029;28;20048;-50
2023/01/14 03:02:01;;;;;;;13.07;2.83;;;8.50;99.90;;;;;;5056216;28;20045;-51
2023/01/14 03:04:30;;;;;;;11.68;2.85;;;8.50;99.90;;;;;;5057393;28;20048;-51
2023/01/14 03:06:58;;;;;;;12.65;3.05;;;8.50;99.90;;;;;;5055754;28;20048;-54
2023/01/14 03:09:27;;;;;;;14.27;2.63;;;8.50;99.90;;;;;;5055656;28;20048;-52
2023/01/14 03:11:53;;;;;;;15.70;2.28;;;8.50;99.90;;;;;;5057261;28;20431;-57
2023/01/14 03:14:21;;;;;;;14.63;2.67;;;8.50;99.90;;;;;;5055723;28;20068;-54
2023/01/14 03:16:48;;;;;;;10.52;2.10;;;8.50;99.90;;;;;;5054866;28;20400;-51
2023/01/14 03:19:14;;;;;;;10.13;2.45;;;8.50;99.90;;;;;;5057139;28;20048;-48
2023/01/14 03:21:42;;;;;;;7.10;1.90;;;8.50;99.90;;;;;;5057064;28;20544;-52
2023/01/14 03:24:09;;;;;;;14.43;2.83;;;8.50;99.90;;;;;;5055675;28;20044;-51
2023/01/14 03:26:36;;;;;;;8.38;1.83;;;8.50;99.90;;;;;;5056739;28;20041;-51
2023/01/14 03:29:03;;;;;;;8.30;2.00;;;8.50;99.90;;;;;;5055474;28;20044;-51
2023/01/14 03:31:31;;;;;;;8.57;1.83;;;8.50;99.90;;;;;;5055788;28;20131;-51
2023/01/14 03:33:57;;;;;;;6.00;1.58;;;8.50;99.90;;;;;;5056345;28;20124;-51
2023/01/14 03:36:24;;;;;;;6.72;1.77;;;8.50;99.90;;;;;;5056802;28;20542;-52
2023/01/14 03:38:51;;;;;;;8.82;1.52;;;8.50;99.90;;;;;;5055472;28;20095;-53
2023/01/14 03:42:17;;;;;;;5.85;1.40;;;8.50;99.90;;;;;;5056596;28;20052;-53
2023/01/14 03:44:04;;;;;;;5.90;1.35;;;8.50;99.90;;;;;;5056712;28;20076;-54
2023/01/14 03:46:31;;;;;;;7.35;1.45;;;8.50;99.90;;;;;;5056667;28;20136;-54
2023/01/14 03:48:58;;;;;;;5.90;1.20;;;8.60;99.90;;;;;;5056677;28;20073;-57
2023/01/14 03:51:25;;;;;;;6.75;1.50;;;8.50;99.90;;;;;;5056410;28;20037;-48
2023/01/14 03:53:51;;;;;;;5.53;1.30;;;8.60;99.90;;;;;;5056496;28;20042;-50
2023/01/14 03:56:18;;;;;;;6.03;1.13;;;8.50;99.90;;;;;;5056253;28;20069;-55
2023/01/14 03:58:45;;;;;;;5.70;1.60;;;8.50;99.90;;;;;;5056439;28;20087;-53
2023/01/14 04:01:12;;;;;;;8.25;1.70;;;8.50;99.90;;;;;;5061139;28;20048;-47
2023/01/14 04:03:39;;;;;;;7.63;1.60;;;8.50;99.90;;;;;;5071112;28;20068;-49
2023/01/14 04:06:05;;;;;;;6.47;1.63;;;8.50;99.90;;;;;;5054965;28;20045;-55
2023/01/14 04:08:32;;;;;;;4.03;1.17;;;8.50;99.90;;;;;;5056097;28;20405;-51
2023/01/14 04:10:59;;;;;;;5.85;1.17;;;8.50;99.90;;;;;;5055945;28;20053;-49
2023/01/14 04:16:11;;;;;;;5.72;0.90;;;8.50;99.90;;;;;;5073257;28;20052;-48
2023/01/14 04:18:38;;;;;;;6.65;1.30;;;8.50;99.90;;;;;;5056029;28;20041;-54
2023/01/14 04:21:04;;;;;;;3.38;1.00;;;8.50;99.90;;;;;;5056172;28;20121;-51
2023/01/14 04:23:31;;;;;;;6.30;1.25;;;8.50;99.90;;;;;;5056147;28;20495;-50
2023/01/14 04:25:58;;;;;;;2.85;0.80;;;8.50;99.90;;;;;;5055842;28;20045;-50
2023/01/14 04:28:25;;;;;;;3.30;0.95;;;8.50;99.90;;;;;;5054721;28;20076;-57
2023/01/14 04:30:52;;;;;;;3.78;0.98;;;8.50;99.90;;;;;;5055103;28;20435;-54
2023/01/14 04:33:18;;;;;;;3.08;0.70;;;8.50;99.90;;;;;;5055790;28;20102;-54
2023/01/14 04:35:45;;;;;;;3.83;1.00;;;8.50;99.90;;;;;;5054359;28;20048;-54
2023/01/14 04:38:12;;;;;;;4.05;1.00;;;8.50;99.90;;;;;;5055527;28;20098;-54
2023/01/14 04:40:39;;;;;;;6.28;1.00;;;8.50;99.90;;;;;;5055753;28;20045;-52
2023/01/14 04:43:06;;;;;;;5.47;0.90;;;8.50;99.90;;;;;;5055695;28;20071;-51
2023/01/14 04:45:32;;;;;;;4.03;1.20;;;8.50;99.90;;;;;;5054781;28;20087;-55
2023/01/14 04:47:59;;;;;;;5.03;1.20;;;8.60;99.90;;;;;;5055666;28;20044;-55
2023/01/14 04:50:33;;;;;;;4.28;0.90;;;8.60;99.90;;;;;;5055405;28;20032;-51
2023/01/14 04:53:00;;;;;;;5.50;1.05;;;8.60;99.90;;;;;;5055265;28;20033;-57
2023/01/14 04:55:27;;;;;;;5.22;1.10;;;8.60;99.90;;;;;;5055170;28;20045;-55
2023/01/14 04:57:57;;;;;;;3.03;0.70;;;8.70;99.90;;;;;;5054037;28;20044;-52
2023/01/14 05:00:24;;;;;;;4.68;1.20;;;8.70;99.90;;;;;;5055077;28;20049;-53
2023/01/14 05:02:51;;;;;;;1.77;0.68;;;8.70;99.90;;;;;;5053985;28;20463;-51
2023/01/14 05:05:18;;;;;;;2.85;0.70;;;8.70;99.90;;;;;;5055084;28;20041;-51
2023/01/14 05:07:44;;;;;;;4.47;0.95;;;8.80;99.90;;;;;;5055058;28;20053;-52
2023/01/14 05:10:11;;;;;;;4.53;0.77;;;8.80;99.90;;;;;;5054980;28;20572;-52
2023/01/14 05:12:38;;;;;;;2.97;0.90;;;8.80;99.90;;;;;;5053039;28;20041;-52
2023/01/14 05:15:05;;;;;;;3.45;1.05;;;8.90;99.90;;;;;;5054993;28;20095;-55
2023/01/14 05:17:31;;;;;;;2.30;0.52;;;8.90;99.90;;;;;;5064699;28;20154;-55
2023/01/14 05:19:58;;;;;;;2.88;0.55;;;8.90;99.90;;;;;;5074171;28;20549;-54
2023/01/14 05:22:25;;;;;;;2.88;1.02;;;8.90;99.90;;;;;;5072746;28;20522;-54
2023/01/14 05:24:51;;;;;;;3.13;0.80;;;8.90;99.90;;;;;;5072351;28;20050;-52
2023/01/14 05:27:18;;;;;;;3.72;0.82;;;8.90;99.90;;;;;;5073958;28;20503;-54
2023/01/14 05:29:45;;;;;;;3.75;0.57;;;9.00;99.90;;;;;;5073614;28;20395;-51
2023/01/14 05:32:12;;;;;;;3.38;0.98;;;9.00;99.90;;;;;;5073814;28;20040;-54
2023/01/14 05:34:38;;;;;;;2.90;0.77;;;9.10;99.90;;;;;;5072466;28;20411;-49
2023/01/14 05:37:06;;;;;;;4.40;0.70;;;9.10;99.90;;;;;;5073454;28;20048;-50
2023/01/14 05:39:33;;;;;;;4.43;0.73;;;9.10;99.90;;;;;;5073727;28;20111;-55
2023/01/14 05:47:30;;;;;;;6.53;0.85;;;9.10;99.90;;;;;;5054455;28;20047;-52
2023/01/14 05:49:57;;;;;;;4.38;1.10;;;9.20;99.90;;;;;;5052404;28;20040;-55
2023/01/14 05:52:24;;;;;;;3.83;0.82;;;9.20;99.90;;;;;;5054667;28;20091;-56
2023/01/14 05:54:50;;;;;;;4.10;1.23;;;9.20;99.90;;;;;;5054215;28;20087;-54
2023/01/14 05:57:17;;;;;;;5.32;1.20;;;9.20;99.90;;;;;;5053054;28;20079;-55
2023/01/14 05:59:44;;;;;;;4.50;0.98;;;9.20;99.90;;;;;;5047607;28;20119;-57
2023/01/14 06:06:20;;;;;;;3.95;1.10;;;9.20;99.90;;;;;;5054116;28;20052;-58
2023/01/14 06:07:55;;;;;;;6.40;1.20;;;9.20;99.90;;;;;;5072879;28;20044;-55
2023/01/14 06:10:24;;;;;;;7.53;1.20;;;9.20;99.90;;;;;;5072614;28;20095;-53
2023/01/14 06:12:57;;;;;;;4.13;1.15;;;9.20;99.90;;;;;;5073161;28;20098;-52
2023/01/14 06:15:24;;;;;;;9.52;1.60;;;9.30;99.90;;;;;;5059875;28;20043;-53
2023/01/14 06:17:57;;;;;;;7.38;1.33;;;9.20;99.90;;;;;;5053038;28;20072;-55
2023/01/14 06:20:24;;;;;;;10.25;1.80;;;9.30;99.90;;;;;;5053820;28;20045;-52
2023/01/14 06:22:51;;;;;;;6.50;1.50;;;9.30;99.90;;;;;;5053692;28;20068;-53
2023/01/14 06:25:17;;;;;;;9.80;2.22;;;9.30;99.90;;;;;;5051627;28;20047;-53
2023/01/14 06:27:44;;;;;;;10.52;1.95;;;9.30;99.90;;;;;;5053829;28;20045;-56
2023/01/14 06:30:11;;;;;;;8.70;1.70;;;9.30;99.90;;;;;;5053644;28;20040;-49
2023/01/14 06:32:38;;;;;;;8.57;1.70;;;9.30;99.90;;;;;;5054152;28;20396;-53
2023/01/14 06:35:04;;;;;;;7.55;1.58;;;9.30;99.90;;;;;;5053885;28;20388;-53
2023/01/14 06:37:31;;;;;;;11.75;1.73;;;9.20;99.90;;;;;;5046903;28;20045;-55
2023/01/14 06:39:58;;;;;;;10.75;1.77;;;9.30;99.90;;;;;;5073272;28;20499;-54
2023/01/14 06:42:25;;;;;;;8.50;1.80;;;9.30;99.90;;;;;;5072710;28;20043;-56
2023/01/14 06:44:51;;;;;;;11.50;2.35;;;9.20;99.90;;;;;;5065982;28;20079;-56
2023/01/14 06:47:18;;;;;;;9.65;1.60;;;9.20;99.90;;;;;;5053330;28;20554;-56
2023/01/14 06:49:45;;;;;;;11.25;2.08;;;9.20;99.90;;;;;;5053511;28;20102;-52
2023/01/14 06:52:11;;;;;;;7.85;1.52;;;9.30;99.90;;;;;;5053599;28;20400;-54
2023/01/14 06:54:38;;;;;;;9.13;1.65;;;9.20;99.90;;;;;;5053485;28;20068;-55
2023/01/14 06:57:05;;;;;;;11.82;1.63;;;9.20;99.90;;;;;;5053001;28;20041;-54
2023/01/14 06:59:32;;;;;;;9.82;1.77;;;9.20;99.90;;;;;;5053290;28;20099;-52
2023/01/14 07:01:59;;;;;;;8.88;2.13;;;9.20;99.90;;;;;;5053427;28;20076;-54
2023/01/14 07:04:26;;;;;;;9.63;2.35;;;9.20;99.90;;;;;;5053546;28;20090;-55
2023/01/14 07:06:53;;;;;;;10.63;1.95;;;9.20;99.90;;;;;;5053373;28;20049;-51
2023/01/14 07:09:20;;;;;;;10.05;1.95;;;9.20;99.90;;;;;;5053419;28;20076;-51
2023/01/14 07:11:47;;;;;;;8.10;2.05;;;9.30;99.90;;;;;;5053023;28;20053;-49
2023/01/14 07:14:14;;;;;;;14.48;2.17;;;9.20;99.90;;;;;;5053200;28;20053;-52
2023/01/14 07:16:41;;;;;;;10.25;2.15;;;9.30;99.90;;;;;;5051594;28;20041;-54
2023/01/14 07:19:07;;;;;;;11.65;1.95;;;9.20;99.90;;;;;;5052118;28;20098;-52
2023/01/14 07:21:34;;;;;;;6.80;1.38;;;9.20;99.90;;;;;;5052134;28;20048;-50
2023/01/14 07:24:01;;;;;;;11.18;1.95;;;9.30;99.90;;;;;;5052164;28;20044;-54
2023/01/14 07:26:28;;;;;;;10.68;1.70;;;9.30;99.90;;;;;;5052631;28;20041;-53
2023/01/14 07:28:55;;;;;;;8.88;1.88;;;9.30;99.90;;;;;;5051977;28;20049;-57
2023/01/14 07:31:21;;;;;;;8.65;1.77;;;9.30;99.90;;;;;;5053276;28;20049;-49
2023/01/14 07:33:48;;;;;;;11.77;2.22;;;9.30;99.90;;;;;;5053057;28;20045;-52
2023/01/14 07:36:15;;;;;;;12.40;1.65;;;9.30;99.90;;;;;;5054865;28;20040;-48
2023/01/14 07:38:42;;;;;;;8.95;2.15;;;9.40;99.90;;;;;;5057349;28;20111;-53
2023/01/14 07:41:09;;;;;;;7.13;1.50;;;9.40;99.90;;;;;;5056947;28;20504;-52
2023/01/14 07:43:36;;;;;;;11.25;1.55;;;9.40;99.90;;;;;;5056616;28;20064;-53
2023/01/14 07:46:02;;;;;;;7.30;1.65;;;9.40;99.90;;;;;;5056670;28;20045;-49
2023/01/14 07:48:29;;;;;;;8.48;1.38;;;9.40;99.90;;;;;;5057005;28;20132;-52
2023/01/14 07:50:56;;;;;;;5.70;1.13;;;9.40;99.90;;;;;;5056731;28;20045;-53
2023/01/14 07:53:23;;;;;;;7.10;1.08;;;9.40;99.90;;;;;;5056516;28;20144;-53
2023/01/14 07:55:50;;;;;;;5.78;1.50;;;9.50;99.90;;;;;;5056398;28;20036;-54
2023/01/14 07:58:17;;;;;;;8.15;1.27;;;9.50;99.90;;;;;;5056553;28;20045;-50
2023/01/14 08:00:44;;;;;;;8.45;1.40;;;9.60;99.90;;;;;;5056461;28;20116;-51
2023/01/14 08:03:11;;;;;;;5.72;1.50;;;9.60;99.90;;;;;;5055610;28;20045;-50
2023/01/14 08:05:38;;;;;;;4.93;1.35;;;9.60;99.90;;;;;;5056032;28;20045;-49
2023/01/14 08:08:04;;;;;;;5.28;1.15;;;9.70;99.90;;;;;;5055030;28;20059;-53
2023/01/14 08:10:31;;;;;;;7.90;1.20;;;9.70;99.90;;;;;;5056060;28;20098;-50
2023/01/14 08:12:58;;;;;;;7.45;1.65;;;9.80;99.90;;;;;;5055416;28;20048;-51
2023/01/14 08:15:25;;;;;;;6.05;1.08;;;9.80;99.90;;;;;;5056361;28;20037;-49
2023/01/14 08:17:51;;;;;;;4.90;1.50;;;9.90;99.90;;;;;;5054735;28;20421;-50
2023/01/14 08:20:22;;;;;;;9.13;1.77;;;9.90;99.90;;;;;;5055249;28;20045;-51
2023/01/14 08:22:48;;;;;;;7.68;1.42;;;10.00;99.90;;;;;;5055874;28;20431;-51
2023/01/14 08:25:15;;;;;;;7.40;1.63;;;10.00;99.90;;;;;;5056187;28;20045;-48
2023/01/14 08:27:42;;;;;;;9.80;1.70;;;10.10;99.90;;;;;;5055674;28;20530;-53
2023/01/14 08:30:09;;;;;;;6.13;1.33;;;10.10;99.90;;;;;;5055688;28;20086;-47
2023/01/14 08:32:36;;;;;;;7.55;1.38;;;10.20;99.90;;;;;;5056070;28;20037;-53
2023/01/14 08:35:02;;;;;;;6.45;1.20;;;10.20;99.90;;;;;;5055817;28;20037;-50
2023/01/14 08:37:29;;;;;;;9.05;1.35;;;10.30;99.90;;;;;;5054256;28;20044;-54
2023/01/14 08:39:56;;;;;;;10.55;1.63;;;10.30;99.90;;;;;;5054233;28;20052;-53
2023/01/14 08:42:23;;;;;;;6.43;1.20;;;10.30;99.90;;;;;;5052994;28;20048;-56
2023/01/14 08:44:49;;;;;;;8.32;1.35;;;10.30;99.90;;;;;;5054129;28;20534;-55
2023/01/14 08:47:16;;;;;;;5.43;1.23;;;10.40;99.90;;;;;;5053102;28;20516;-54
2023/01/14 08:49:43;;;;;;;5.40;1.17;;;10.40;99.90;;;;;;5054744;28;20049;-51
2023/01/14 08:52:10;;;;;;;5.63;1.02;;;10.40;99.90;;;;;;5054092;28;20480;-51
2023/01/14 08:54:37;;;;;;;5.28;1.10;;;10.40;99.90;;;;;;5054074;28;20091;-52
2023/01/14 08:57:03;;;;;;;5.93;0.85;;;10.50;99.90;;;;;;5053868;28;20116;-56
2023/01/14 08:59:30;;;;;;;4.25;0.80;;;10.50;99.90;;;;;;5053686;28;20044;-54
2023/01/14 09:01:57;;;;;;;7.40;1.35;;;10.50;99.90;;;;;;5053741;28;20531;-53
2023/01/14 09:04:24;;;;;;;6.32;1.45;;;10.60;99.90;;;;;;5053644;28;20083;-54
2023/01/14 09:17:54;;;;;;;3.72;0.90;;;10.60;99.90;;;;;;5055287;28;20064;-54
2023/01/14 09:20:20;;;;;;;5.15;1.13;;;10.70;99.90;;;;;;5053559;28;20080;-55
2023/01/14 09:22:47;;;;;;;4.45;1.02;;;10.70;99.90;;;;;;5055293;28;20223;-53
2023/01/14 09:25:14;;;;;;;3.25;0.90;;;10.70;99.90;;;;;;5053459;28;20103;-53
2023/01/14 09:27:52;;;;;;;3.90;0.73;;;10.80;99.90;;;;;;5054664;28;20472;-55
2023/01/14 09:30:19;;;;;;;4.13;0.70;;;10.80;99.90;;;;;;5054846;28;20361;-49
2023/01/14 09:32:45;;;;;;;4.97;0.80;;;10.80;99.90;;;;;;5054739;28;20131;-48
2023/01/14 09:35:12;;;;;;;4.57;0.85;;;10.90;99.90;;;;;;5054725;28;20045;-56
2023/01/14 09:37:39;;;;;;;4.75;0.70;;;10.90;99.90;;;;;;5053771;28;20373;-51
2023/01/14 09:40:06;;;;;;;3.42;1.08;;;10.90;99.90;;;;;;5054614;28;20048;-54
2023/01/14 09:42:33;;;;;;;3.95;0.80;;;10.90;99.90;;;;;;5054544;28;20056;-52
2023/01/14 09:44:59;;;;;;;3.40;0.68;;;10.90;99.90;;;;;;5054353;28;20052;-56
2023/01/14 09:47:27;;;;;;;2.75;0.60;;;11.00;99.90;;;;;;5054167;28;20048;-50
2023/01/14 09:49:54;;;;;;;3.42;0.80;;;11.00;99.90;;;;;;5053284;28;20041;-53
2023/01/14 09:52:21;;;;;;;4.32;0.70;;;11.00;99.90;;;;;;5054209;28;20037;-56
2023/01/14 09:54:48;;;;;;;1.83;0.52;;;11.00;99.90;;;;;;5054534;28;20107;-51
2023/01/14 09:57:14;;;;;;;4.07;1.25;;;11.00;99.90;;;;;;5054227;28;20095;-56
2023/01/14 09:59:41;;;;;;;4.20;0.70;;;11.00;99.90;;;;;;5053997;28;20162;-58
2023/01/14 10:02:08;;;;;;;2.55;0.80;;;11.10;99.90;;;;;;5054009;28;20059;-59
2023/01/14 10:04:35;;;;;;;2.88;0.68;;;11.10;99.90;;;;;;5053732;28;20480;-55
2023/01/14 10:07:01;;;;;;;4.70;0.80;;;11.10;99.90;;;;;;5053848;28;20443;-57
2023/01/14 10:09:28;;;;;;;3.90;0.70;;;11.10;99.90;;;;;;5053647;28;20075;-56
2023/01/14 10:11:55;;;;;;;3.40;0.70;;;11.10;99.90;;;;;;5053823;28;20037;-56
2023/01/14 10:14:22;;;;;;;2.17;0.60;;;11.20;99.90;;;;;;5054051;28;20423;-57
2023/01/14 10:16:48;;;;;;;2.03;0.50;;;11.20;99.90;;;;;;5053517;28;20040;-53
2023/01/14 10:19:15;;;;;;;3.80;0.90;;;11.20;99.90;;;;;;5053887;28;20045;-56
2023/01/14 10:21:42;;;;;;;1.98;0.45;;;11.20;99.90;;;;;;5053921;28;20041;-50
2023/01/14 10:24:09;;;;;;;2.40;0.50;;;11.20;99.90;;;;;;5054161;28;20048;-52
2023/01/14 10:26:36;;;;;;;3.42;0.50;;;11.30;99.90;;;;;;5053788;28;20392;-52
2023/01/14 10:29:03;;;;;;;2.08;0.50;;;11.30;99.90;;;;;;5053687;28;20055;-55
2023/01/14 10:31:30;;;;;;;2.72;0.60;;;11.30;99.90;;;;;;5052104;28;20134;-55
2023/01/14 10:33:57;;;;;;;2.00;0.52;;;11.30;99.90;;;;;;5054002;28;20040;-54
2023/01/14 10:36:24;;;;;;;4.63;0.68;;;11.30;99.90;;;;;;5053638;28;20037;-54
2023/01/14 10:38:50;;;;;;;3.28;0.80;;;11.30;99.90;;;;;;5053512;28;20045;-55
2023/01/14 10:41:48;;;;;;;4.25;0.80;;;11.40;99.90;;;;;;5053848;28;20055;-54
2023/01/14 10:44:04;;;;;;;3.17;0.80;;;11.30;99.90;;;;;;5053343;28;20049;-55
2023/01/14 10:46:30;;;;;;;3.85;0.75;;;11.40;99.90;;;;;;5053667;28;20500;-51
2023/01/14 10:48:57;;;;;;;3.83;0.60;;;11.40;99.90;;;;;;5053907;28;20507;-51
2023/01/14 10:51:24;;;;;;;2.78;0.63;;;11.40;99.90;;;;;;5052334;28;20090;-58
2023/01/14 10:53:51;;;;;;;2.95;0.50;;;11.40;99.90;;;;;;5052209;28;20412;-57
2023/01/14 10:56:17;;;;;;;1.92;0.50;;;11.40;99.90;;;;;;5053193;28;20041;-52
2023/01/14 10:58:44;;;;;;;1.38;0.52;;;11.40;99.90;;;;;;5053813;28;20037;-51
2023/01/14 11:01:11;;;;;;;3.30;0.77;;;11.40;99.90;;;;;;5053776;28;20067;-56
2023/01/14 11:03:38;;;;;;;2.97;0.60;;;11.50;99.90;;;;;;5053516;28;20049;-48
2023/01/14 11:06:05;;;;;;;2.15;0.60;;;11.50;99.90;;;;;;5052189;28;20057;-53
2023/01/14 11:08:32;;;;;;;1.17;0.35;;;11.50;99.90;;;;;;5053374;28;20463;-58
2023/01/14 11:10:59;;;;;;;1.98;0.90;;;11.50;99.90;;;;;;5054514;28;20432;-57
2023/01/14 11:13:25;;;;;;;0.75;0.28;;;11.50;99.90;;;;;;5057272;28;20541;-56
2023/01/14 11:15:52;;;;;;;2.33;0.40;;;11.50;99.90;;;;;;5057535;28;20477;-57
2023/01/14 11:18:19;;;;;;;2.17;0.35;;;11.50;99.90;;;;;;5057107;28;20072;-53
2023/01/14 11:20:46;;;;;;;3.83;0.60;;;11.50;99.90;;;;;;5057355;28;20047;-54
2023/01/14 11:23:13;;;;;;;1.15;0.30;;;11.60;99.90;;;;;;5057481;28;20109;-54
2023/01/14 11:25:41;;;;;;;1.48;0.40;;;11.60;99.90;;;;;;5057151;28;20091;-57
2023/01/14 11:28:08;;;;;;;2.15;0.40;;;11.60;99.90;;;;;;5057556;28;20048;-55
2023/01/14 11:30:34;;;;;;;2.58;0.60;;;11.60;99.90;;;;;;5057157;28;20041;-53
2023/01/14 11:33:02;;;;;;;2.65;0.73;;;11.60;99.90;;;;;;5056909;28;20037;-53
2023/01/14 11:35:28;;;;;;;2.25;0.52;;;11.60;99.90;;;;;;5056839;28;20045;-48
2023/01/14 11:37:56;;;;;;;1.45;0.50;;;11.70;99.90;;;;;;5055608;28;20098;-57
2023/01/14 11:40:23;;;;;;;2.45;0.52;;;11.70;99.90;;;;;;5056672;28;20064;-54
2023/01/14 11:42:50;;;;;;;1.30;0.40;;;11.70;99.90;;;;;;5057028;28;20076;-56
2023/01/14 11:45:17;;;;;;;2.15;0.50;;;11.70;99.90;;;;;;5056703;28;20115;-52
2023/01/14 11:47:44;;;;;;;1.55;0.40;;;11.70;99.90;;;;;;5056659;28;20076;-51
2023/01/14 11:50:11;;;;;;;2.92;0.43;;;11.70;99.90;;;;;;5056714;28;20049;-53
2023/01/14 11:52:38;;;;;;;1.88;0.43;;;11.60;99.90;;;;;;5055386;28;20476;-58
2023/01/14 11:55:05;;;;;;;1.90;0.50;;;11.60;99.90;;;;;;5056859;28;20041;-56
2023/01/14 11:57:32;;;;;;;1.50;0.40;;;11.70;99.90;;;;;;5055198;28;20428;-54
2023/01/14 11:59:59;;;;;;;3.92;0.55;;;11.70;99.90;;;;;;5056490;28;20052;-56
2023/01/14 12:02:25;;;;;;;1.10;0.30;;;11.60;99.90;;;;;;5056397;28;20045;-55
2023/01/14 12:04:52;;;;;;;1.85;0.50;;;11.70;99.90;;;;;;5054858;28;20112;-52
2023/01/14 12:07:20;;;;;;;1.65;0.60;;;11.70;99.90;;;;;;5056002;28;20052;-53
2023/01/14 12:09:48;;;;;;;2.88;0.40;;;11.70;99.90;;;;;;5054802;28;20055;-56
2023/01/14 12:12:15;;;;;;;2.47;0.50;;;11.70;99.90;;;;;;5055834;28;20059;-51
2023/01/14 12:17:29;;;;;;;0.88;0.40;;;11.70;99.90;;;;;;5045270;28;20053;-54
2023/01/14 12:19:57;;;;;;;2.00;0.50;;;11.70;99.90;;;;;;5056114;28;20041;-52
2023/01/14 12:22:24;;;;;;;5.15;0.60;;;11.70;99.90;;;;;;5054799;28;20041;-55
2023/01/14 12:24:51;;;;;;;1.67;0.47;;;11.80;99.90;;;;;;5056329;28;20072;-53
2023/01/14 12:27:41;;;;;;;2.78;0.65;;;11.70;99.90;;;;;;5055909;28;20077;-57
2023/01/14 12:30:04;;;;;;;1.40;0.50;;;11.70;99.90;;;;;;5056109;28;20045;-57
2023/01/14 12:32:31;;;;;;;2.20;0.52;;;11.70;99.90;;;;;;5055870;28;20551;-57
2023/01/14 12:34:59;;;;;;;1.23;0.52;;;11.70;99.90;;;;;;5055958;28;20488;-54
2023/01/14 12:37:26;;;;;;;1.65;0.50;;;11.70;99.90;;;;;;5055665;28;20440;-57
2023/01/14 12:45:44;;;;;;;1.05;0.40;;;11.70;99.90;;;;;;5055709;28;20044;-56
2023/01/14 12:48:11;;;;;;;0.77;0.40;;;11.60;99.90;;;;;;5055565;28;20044;-56
2023/01/14 12:50:37;;;;;;;0.20;0.20;;;11.60;99.90;;;;;;5055633;28;20063;-53
2023/01/14 12:53:04;;;;;;;1.17;0.40;;;11.60;99.90;;;;;;5055510;28;20048;-53
2023/01/14 12:55:31;;;;;;;0.90;0.30;;;11.50;99.90;;;;;;5055445;28;20041;-55
2023/01/14 12:57:58;;;;;;;1.40;0.43;;;11.50;99.90;;;;;;5055185;28;20048;-54
2023/01/14 13:00:26;;;;;;;1.33;0.43;;;11.40;99.90;;;;;;5055567;28;20041;-55
2023/01/14 13:02:54;;;;;;;1.23;0.40;;;11.40;99.90;;;;;;5055101;28;20539;-50
2023/01/14 13:05:20;;;;;;;2.80;0.80;;;11.40;99.90;;;;;;5055181;28;20053;-54
2023/01/14 13:07:47;;;;;;;1.60;0.60;;;11.30;99.90;;;;;;5055081;28;20052;-53
2023/01/14 13:10:14;;;;;;;1.05;0.30;;;11.30;99.90;;;;;;5054751;28;20048;-52
2023/01/14 13:12:41;;;;;;;2.00;0.50;;;11.20;99.90;;;;;;5055219;28;20037;-59
2023/01/14 13:15:08;;;;;;;2.92;0.60;;;11.20;99.90;;;;;;5055199;28;20439;-53
2023/01/14 13:17:35;;;;;;;2.13;0.70;;;11.20;99.90;;;;;;5055038;28;20045;-55
2023/01/14 13:20:02;;;;;;;2.70;0.50;;;11.10;99.90;;;;;;5055276;28;20048;-57
2023/01/14 13:22:28;;;;;;;1.88;0.57;;;11.10;99.90;;;;;;5054951;28;20044;-52